sensor_id;sensor_type;location;lat;lon;timestamp;P1;durP1;ratioP1;P2;durP2;ratioP2
52360;SDS011;38294;42.966;1.608;2022-09-09T00:01:00;3.35;;;1.50;;
52360;SDS011;38294;42.966;1.608;2022-09-09T00:03:33;3.35;;;1.40;;
52360;SDS011;38294;42.966;1.608;2022-09-09T00:06:10;2.35;;;1.38;;
52360;SDS011;38294;42.966;1.608;2022-09-09T00:11:09;3.10;;;1.50;;
52360;SDS011;38294;42.966;1.608;2022-09-09T00:13:40;3.38;;;1.60;;
52360;SDS011;38294;42.966;1.608;2022-09-09T00:16:22;5.90;;;1.50;;
52360;SDS011;38294;42.966;1.608;2022-09-09T00:19:00;2.55;;;1.48;;
52360;SDS011;38294;42.966;1.608;2022-09-09T00:24:45;9.50;;;1.80;;
52360;SDS011;38294;42.966;1.608;2022-09-09T00:27:16;6.32;;;1.73;;
52360;SDS011;38294;42.966;1.608;2022-09-09T00:32:20;1.77;;;1.50;;
52360;SDS011;38294;42.966;1.608;2022-09-09T00:34:54;2.80;;;1.48;;
52360;SDS011;38294;42.966;1.608;2022-09-09T00:37:24;3.33;;;1.50;;
52360;SDS011;38294;42.966;1.608;2022-09-09T00:39:51;5.13;;;1.65;;
52360;SDS011;38294;42.966;1.608;2022-09-09T00:42:25;3.72;;;1.50;;
52360;SDS011;38294;42.966;1.608;2022-09-09T00:45:02;2.60;;;1.50;;
52360;SDS011;38294;42.966;1.608;2022-09-09T00:47:44;4.03;;;1.50;;
52360;SDS011;38294;42.966;1.608;2022-09-09T00:56:23;3.97;;;1.45;;
52360;SDS011;38294;42.966;1.608;2022-09-09T00:58:59;5.60;;;2.03;;
52360;SDS011;38294;42.966;1.608;2022-09-09T01:01:46;3.83;;;1.40;;
52360;SDS011;38294;42.966;1.608;2022-09-09T01:04:13;2.60;;;1.50;;
52360;SDS011;38294;42.966;1.608;2022-09-09T01:06:45;7.05;;;2.00;;
52360;SDS011;38294;42.966;1.608;2022-09-09T01:09:27;10.43;;;2.97;;
52360;SDS011;38294;42.966;1.608;2022-09-09T01:12:14;12.45;;;5.28;;
52360;SDS011;38294;42.966;1.608;2022-09-09T01:17:30;5.47;;;1.67;;
52360;SDS011;38294;42.966;1.608;2022-09-09T01:22:56;2.50;;;1.55;;
52360;SDS011;38294;42.966;1.608;2022-09-09T01:28:35;5.25;;;2.53;;
52360;SDS011;38294;42.966;1.608;2022-09-09T01:31:05;4.30;;;1.80;;
52360;SDS011;38294;42.966;1.608;2022-09-09T01:33:34;6.25;;;1.77;;
52360;SDS011;38294;42.966;1.608;2022-09-09T01:36:06;3.42;;;1.60;;
52360;SDS011;38294;42.966;1.608;2022-09-09T01:38:35;3.67;;;1.60;;
52360;SDS011;38294;42.966;1.608;2022-09-09T01:41:02;3.75;;;1.40;;
52360;SDS011;38294;42.966;1.608;2022-09-09T01:43:27;2.40;;;1.60;;
52360;SDS011;38294;42.966;1.608;2022-09-09T01:45:54;6.53;;;1.50;;
52360;SDS011;38294;42.966;1.608;2022-09-09T01:48:23;7.57;;;1.50;;
52360;SDS011;38294;42.966;1.608;2022-09-09T01:53:51;3.50;;;1.40;;
52360;SDS011;38294;42.966;1.608;2022-09-09T01:59:14;3.05;;;1.25;;
52360;SDS011;38294;42.966;1.608;2022-09-09T02:02:03;5.05;;;1.38;;
52360;SDS011;38294;42.966;1.608;2022-09-09T02:04:39;3.03;;;1.30;;
52360;SDS011;38294;42.966;1.608;2022-09-09T02:07:30;2.13;;;1.45;;
52360;SDS011;38294;42.966;1.608;2022-09-09T02:10:02;2.47;;;1.27;;
52360;SDS011;38294;42.966;1.608;2022-09-09T02:12:36;6.55;;;2.08;;
52360;SDS011;38294;42.966;1.608;2022-09-09T02:15:16;4.35;;;1.55;;
52360;SDS011;38294;42.966;1.608;2022-09-09T02:17:47;8.40;;;1.48;;
52360;SDS011;38294;42.966;1.608;2022-09-09T02:20:16;4.95;;;1.63;;
52360;SDS011;38294;42.966;1.608;2022-09-09T02:22:44;3.90;;;1.40;;
52360;SDS011;38294;42.966;1.608;2022-09-09T02:25:14;4.80;;;1.58;;
52360;SDS011;38294;42.966;1.608;2022-09-09T02:27:44;2.85;;;1.60;;
52360;SDS011;38294;42.966;1.608;2022-09-09T02:30:13;2.40;;;1.50;;
52360;SDS011;38294;42.966;1.608;2022-09-09T02:32:40;3.28;;;1.60;;
52360;SDS011;38294;42.966;1.608;2022-09-09T02:35:09;5.00;;;1.40;;
52360;SDS011;38294;42.966;1.608;2022-09-09T02:37:38;2.92;;;1.50;;
52360;SDS011;38294;42.966;1.608;2022-09-09T02:40:07;3.63;;;1.75;;
52360;SDS011;38294;42.966;1.608;2022-09-09T02:42:41;4.32;;;1.63;;
52360;SDS011;38294;42.966;1.608;2022-09-09T02:45:09;3.13;;;1.20;;
52360;SDS011;38294;42.966;1.608;2022-09-09T02:53:39;4.53;;;1.37;;
52360;SDS011;38294;42.966;1.608;2022-09-09T02:56:09;5.18;;;1.58;;
52360;SDS011;38294;42.966;1.608;2022-09-09T02:58:41;4.93;;;1.60;;
52360;SDS011;38294;42.966;1.608;2022-09-09T03:01:07;7.90;;;1.67;;
52360;SDS011;38294;42.966;1.608;2022-09-09T03:03:33;4.10;;;1.58;;
52360;SDS011;38294;42.966;1.608;2022-09-09T03:05:59;6.05;;;1.88;;
52360;SDS011;38294;42.966;1.608;2022-09-09T03:08:25;3.35;;;1.70;;
52360;SDS011;38294;42.966;1.608;2022-09-09T03:10:53;6.88;;;1.85;;
52360;SDS011;38294;42.966;1.608;2022-09-09T03:13:20;4.30;;;1.50;;
52360;SDS011;38294;42.966;1.608;2022-09-09T03:15:45;4.63;;;1.70;;
52360;SDS011;38294;42.966;1.608;2022-09-09T03:18:13;6.15;;;1.73;;
52360;SDS011;38294;42.966;1.608;2022-09-09T03:20:39;5.03;;;1.60;;
52360;SDS011;38294;42.966;1.608;2022-09-09T03:23:07;2.25;;;1.30;;
52360;SDS011;38294;42.966;1.608;2022-09-09T03:25:32;4.70;;;1.63;;
52360;SDS011;38294;42.966;1.608;2022-09-09T03:27:58;2.55;;;1.20;;
52360;SDS011;38294;42.966;1.608;2022-09-09T03:30:25;4.03;;;1.50;;
52360;SDS011;38294;42.966;1.608;2022-09-09T03:32:52;3.60;;;1.60;;
52360;SDS011;38294;42.966;1.608;2022-09-09T03:35:18;5.13;;;1.42;;
52360;SDS011;38294;42.966;1.608;2022-09-09T03:37:44;2.95;;;1.75;;
52360;SDS011;38294;42.966;1.608;2022-09-09T03:40:10;4.93;;;1.40;;
52360;SDS011;38294;42.966;1.608;2022-09-09T03:42:36;3.42;;;1.65;;
52360;SDS011;38294;42.966;1.608;2022-09-09T03:45:03;4.05;;;1.80;;
52360;SDS011;38294;42.966;1.608;2022-09-09T03:47:30;2.92;;;1.40;;
52360;SDS011;38294;42.966;1.608;2022-09-09T03:49:55;3.92;;;1.60;;
52360;SDS011;38294;42.966;1.608;2022-09-09T03:52:21;4.43;;;1.70;;
52360;SDS011;38294;42.966;1.608;2022-09-09T03:54:50;3.13;;;1.50;;
52360;SDS011;38294;42.966;1.608;2022-09-09T03:57:16;5.35;;;1.70;;
52360;SDS011;38294;42.966;1.608;2022-09-09T03:59:42;2.03;;;1.42;;
52360;SDS011;38294;42.966;1.608;2022-09-09T04:02:08;4.68;;;1.45;;
52360;SDS011;38294;42.966;1.608;2022-09-09T04:04:34;6.95;;;1.98;;
52360;SDS011;38294;42.966;1.608;2022-09-09T04:06:59;3.78;;;1.77;;
52360;SDS011;38294;42.966;1.608;2022-09-09T04:09:25;5.22;;;1.63;;
52360;SDS011;38294;42.966;1.608;2022-09-09T04:11:50;6.10;;;1.70;;
52360;SDS011;38294;42.966;1.608;2022-09-09T04:14:17;4.25;;;1.58;;
52360;SDS011;38294;42.966;1.608;2022-09-09T04:16:43;6.30;;;1.70;;
52360;SDS011;38294;42.966;1.608;2022-09-09T04:19:09;2.35;;;1.23;;
52360;SDS011;38294;42.966;1.608;2022-09-09T04:21:38;4.65;;;1.80;;
52360;SDS011;38294;42.966;1.608;2022-09-09T04:24:05;6.22;;;1.85;;
52360;SDS011;38294;42.966;1.608;2022-09-09T04:26:31;3.97;;;1.70;;
52360;SDS011;38294;42.966;1.608;2022-09-09T04:28:57;5.80;;;1.88;;
52360;SDS011;38294;42.966;1.608;2022-09-09T04:31:22;7.25;;;2.15;;
52360;SDS011;38294;42.966;1.608;2022-09-09T04:33:51;5.40;;;1.75;;
52360;SDS011;38294;42.966;1.608;2022-09-09T04:36:17;4.82;;;1.88;;
52360;SDS011;38294;42.966;1.608;2022-09-09T04:38:44;4.45;;;1.60;;
52360;SDS011;38294;42.966;1.608;2022-09-09T04:41:11;6.85;;;1.90;;
52360;SDS011;38294;42.966;1.608;2022-09-09T04:43:37;4.47;;;1.50;;
52360;SDS011;38294;42.966;1.608;2022-09-09T04:46:04;4.20;;;1.65;;
52360;SDS011;38294;42.966;1.608;2022-09-09T04:48:30;3.70;;;1.55;;
52360;SDS011;38294;42.966;1.608;2022-09-09T04:53:30;2.70;;;1.48;;
52360;SDS011;38294;42.966;1.608;2022-09-09T04:56:05;2.15;;;1.15;;
52360;SDS011;38294;42.966;1.608;2022-09-09T04:58:35;5.03;;;1.60;;
52360;SDS011;38294;42.966;1.608;2022-09-09T05:01:07;3.85;;;1.55;;
52360;SDS011;38294;42.966;1.608;2022-09-09T05:03:37;3.85;;;1.80;;
52360;SDS011;38294;42.966;1.608;2022-09-09T05:06:09;2.92;;;1.67;;
52360;SDS011;38294;42.966;1.608;2022-09-09T05:08:37;4.15;;;1.50;;
52360;SDS011;38294;42.966;1.608;2022-09-09T05:11:04;3.63;;;1.80;;
52360;SDS011;38294;42.966;1.608;2022-09-09T05:13:49;6.15;;;1.90;;
52360;SDS011;38294;42.966;1.608;2022-09-09T05:16:15;3.38;;;1.60;;
52360;SDS011;38294;42.966;1.608;2022-09-09T05:18:42;3.50;;;1.70;;
52360;SDS011;38294;42.966;1.608;2022-09-09T05:21:09;5.53;;;1.85;;
52360;SDS011;38294;42.966;1.608;2022-09-09T05:23:35;3.83;;;2.35;;
52360;SDS011;38294;42.966;1.608;2022-09-09T05:26:02;4.28;;;1.90;;
52360;SDS011;38294;42.966;1.608;2022-09-09T05:28:28;6.95;;;1.80;;
52360;SDS011;38294;42.966;1.608;2022-09-09T05:30:56;5.90;;;1.77;;
52360;SDS011;38294;42.966;1.608;2022-09-09T05:33:23;5.00;;;1.92;;
52360;SDS011;38294;42.966;1.608;2022-09-09T05:35:57;5.90;;;1.58;;
52360;SDS011;38294;42.966;1.608;2022-09-09T05:38:23;8.43;;;1.95;;
52360;SDS011;38294;42.966;1.608;2022-09-09T05:40:50;2.80;;;1.70;;
52360;SDS011;38294;42.966;1.608;2022-09-09T05:43:17;9.10;;;1.90;;
52360;SDS011;38294;42.966;1.608;2022-09-09T05:45:44;7.47;;;1.77;;
52360;SDS011;38294;42.966;1.608;2022-09-09T05:48:12;5.32;;;1.52;;
52360;SDS011;38294;42.966;1.608;2022-09-09T05:50:37;3.97;;;1.85;;
52360;SDS011;38294;42.966;1.608;2022-09-09T05:53:03;4.65;;;2.00;;
52360;SDS011;38294;42.966;1.608;2022-09-09T05:55:28;3.30;;;1.70;;
52360;SDS011;38294;42.966;1.608;2022-09-09T05:57:54;6.97;;;2.00;;
52360;SDS011;38294;42.966;1.608;2022-09-09T06:00:19;6.88;;;2.13;;
52360;SDS011;38294;42.966;1.608;2022-09-09T06:02:50;2.95;;;1.80;;
52360;SDS011;38294;42.966;1.608;2022-09-09T06:05:17;5.07;;;1.80;;
52360;SDS011;38294;42.966;1.608;2022-09-09T06:07:43;2.40;;;1.60;;
52360;SDS011;38294;42.966;1.608;2022-09-09T06:10:10;9.63;;;2.00;;
52360;SDS011;38294;42.966;1.608;2022-09-09T06:12:38;6.03;;;2.40;;
52360;SDS011;38294;42.966;1.608;2022-09-09T06:15:04;7.20;;;2.15;;
52360;SDS011;38294;42.966;1.608;2022-09-09T06:17:30;3.15;;;1.60;;
52360;SDS011;38294;42.966;1.608;2022-09-09T06:19:56;4.85;;;1.77;;
52360;SDS011;38294;42.966;1.608;2022-09-09T06:22:22;7.95;;;2.70;;
52360;SDS011;38294;42.966;1.608;2022-09-09T06:24:47;5.70;;;2.08;;
52360;SDS011;38294;42.966;1.608;2022-09-09T06:27:13;5.13;;;2.70;;
52360;SDS011;38294;42.966;1.608;2022-09-09T06:29:38;5.50;;;2.40;;
52360;SDS011;38294;42.966;1.608;2022-09-09T06:32:04;7.20;;;1.77;;
52360;SDS011;38294;42.966;1.608;2022-09-09T06:34:30;4.13;;;2.28;;
52360;SDS011;38294;42.966;1.608;2022-09-09T06:36:56;5.20;;;1.90;;
52360;SDS011;38294;42.966;1.608;2022-09-09T06:39:24;8.77;;;2.38;;
52360;SDS011;38294;42.966;1.608;2022-09-09T06:41:50;8.57;;;3.42;;
52360;SDS011;38294;42.966;1.608;2022-09-09T06:44:18;11.38;;;4.60;;
52360;SDS011;38294;42.966;1.608;2022-09-09T06:46:44;16.38;;;5.43;;
52360;SDS011;38294;42.966;1.608;2022-09-09T06:49:12;14.38;;;4.88;;
52360;SDS011;38294;42.966;1.608;2022-09-09T06:51:38;19.58;;;6.90;;
52360;SDS011;38294;42.966;1.608;2022-09-09T06:54:08;35.35;;;11.18;;
52360;SDS011;38294;42.966;1.608;2022-09-09T06:56:35;33.40;;;8.75;;
52360;SDS011;38294;42.966;1.608;2022-09-09T06:59:06;19.00;;;6.30;;
52360;SDS011;38294;42.966;1.608;2022-09-09T07:04:03;5.45;;;2.10;;
52360;SDS011;38294;42.966;1.608;2022-09-09T07:06:33;4.05;;;1.90;;
52360;SDS011;38294;42.966;1.608;2022-09-09T07:09:04;3.75;;;2.00;;
52360;SDS011;38294;42.966;1.608;2022-09-09T07:11:32;3.67;;;1.85;;
52360;SDS011;38294;42.966;1.608;2022-09-09T07:13:59;9.95;;;1.92;;
52360;SDS011;38294;42.966;1.608;2022-09-09T07:16:26;4.95;;;1.95;;
52360;SDS011;38294;42.966;1.608;2022-09-09T07:18:56;8.18;;;1.92;;
52360;SDS011;38294;42.966;1.608;2022-09-09T07:21:26;8.05;;;2.00;;
52360;SDS011;38294;42.966;1.608;2022-09-09T07:23:53;7.95;;;2.38;;
52360;SDS011;38294;42.966;1.608;2022-09-09T07:26:20;4.97;;;2.33;;
52360;SDS011;38294;42.966;1.608;2022-09-09T07:28:47;9.10;;;3.20;;
52360;SDS011;38294;42.966;1.608;2022-09-09T07:31:14;5.68;;;2.28;;
52360;SDS011;38294;42.966;1.608;2022-09-09T07:33:42;7.35;;;2.15;;
52360;SDS011;38294;42.966;1.608;2022-09-09T07:36:10;9.00;;;2.13;;
52360;SDS011;38294;42.966;1.608;2022-09-09T07:38:41;5.28;;;2.13;;
52360;SDS011;38294;42.966;1.608;2022-09-09T07:41:12;7.55;;;2.53;;
52360;SDS011;38294;42.966;1.608;2022-09-09T07:43:43;4.97;;;1.98;;
52360;SDS011;38294;42.966;1.608;2022-09-09T07:46:10;8.40;;;3.08;;
52360;SDS011;38294;42.966;1.608;2022-09-09T07:48:37;6.10;;;1.88;;
52360;SDS011;38294;42.966;1.608;2022-09-09T07:51:07;5.07;;;2.25;;
52360;SDS011;38294;42.966;1.608;2022-09-09T07:53:36;3.50;;;1.92;;
52360;SDS011;38294;42.966;1.608;2022-09-09T07:56:08;5.63;;;1.75;;
52360;SDS011;38294;42.966;1.608;2022-09-09T07:58:36;3.85;;;1.90;;
52360;SDS011;38294;42.966;1.608;2022-09-09T08:01:06;7.40;;;2.03;;
52360;SDS011;38294;42.966;1.608;2022-09-09T08:03:36;3.50;;;1.70;;
52360;SDS011;38294;42.966;1.608;2022-09-09T08:06:03;6.03;;;1.65;;
52360;SDS011;38294;42.966;1.608;2022-09-09T08:08:32;7.13;;;1.63;;
52360;SDS011;38294;42.966;1.608;2022-09-09T08:11:02;4.78;;;1.50;;
52360;SDS011;38294;42.966;1.608;2022-09-09T08:13:30;7.78;;;2.90;;
52360;SDS011;38294;42.966;1.608;2022-09-09T08:16:03;4.85;;;1.77;;
52360;SDS011;38294;42.966;1.608;2022-09-09T08:18:42;5.75;;;2.33;;
52360;SDS011;38294;42.966;1.608;2022-09-09T08:21:10;5.18;;;2.10;;
52360;SDS011;38294;42.966;1.608;2022-09-09T08:23:40;5.07;;;2.47;;
52360;SDS011;38294;42.966;1.608;2022-09-09T08:26:10;10.07;;;2.30;;
52360;SDS011;38294;42.966;1.608;2022-09-09T08:28:38;5.45;;;1.75;;
52360;SDS011;38294;42.966;1.608;2022-09-09T08:31:14;3.53;;;1.77;;
52360;SDS011;38294;42.966;1.608;2022-09-09T08:33:42;3.78;;;1.55;;
52360;SDS011;38294;42.966;1.608;2022-09-09T08:36:11;3.05;;;1.33;;
52360;SDS011;38294;42.966;1.608;2022-09-09T08:38:40;6.78;;;1.33;;
52360;SDS011;38294;42.966;1.608;2022-09-09T08:44:03;2.63;;;1.30;;
52360;SDS011;38294;42.966;1.608;2022-09-09T08:49:03;3.85;;;1.50;;
52360;SDS011;38294;42.966;1.608;2022-09-09T08:51:40;4.20;;;1.50;;
52360;SDS011;38294;42.966;1.608;2022-09-09T08:54:07;5.05;;;1.20;;
52360;SDS011;38294;42.966;1.608;2022-09-09T08:56:35;3.80;;;1.20;;
52360;SDS011;38294;42.966;1.608;2022-09-09T08:59:03;3.50;;;1.35;;
52360;SDS011;38294;42.966;1.608;2022-09-09T09:05:15;5.63;;;1.65;;
52360;SDS011;38294;42.966;1.608;2022-09-09T09:12:45;5.85;;;1.60;;
52360;SDS011;38294;42.966;1.608;2022-09-09T09:15:25;2.85;;;1.38;;
52360;SDS011;38294;42.966;1.608;2022-09-09T09:17:54;2.95;;;1.17;;
52360;SDS011;38294;42.966;1.608;2022-09-09T09:20:21;2.90;;;1.10;;
52360;SDS011;38294;42.966;1.608;2022-09-09T09:23:15;5.70;;;1.52;;
52360;SDS011;38294;42.966;1.608;2022-09-09T09:25:47;4.00;;;1.50;;
52360;SDS011;38294;42.966;1.608;2022-09-09T09:28:24;3.50;;;1.20;;
52360;SDS011;38294;42.966;1.608;2022-09-09T09:33:34;2.70;;;1.20;;
52360;SDS011;38294;42.966;1.608;2022-09-09T09:36:07;3.63;;;1.50;;
52360;SDS011;38294;42.966;1.608;2022-09-09T09:38:34;7.28;;;1.55;;
52360;SDS011;38294;42.966;1.608;2022-09-09T09:41:01;56.90;;;6.25;;
52360;SDS011;38294;42.966;1.608;2022-09-09T09:43:28;4.57;;;1.38;;
52360;SDS011;38294;42.966;1.608;2022-09-09T09:45:56;9.93;;;2.80;;
52360;SDS011;38294;42.966;1.608;2022-09-09T09:48:23;43.28;;;4.13;;
52360;SDS011;38294;42.966;1.608;2022-09-09T09:50:59;9.07;;;1.85;;
52360;SDS011;38294;42.966;1.608;2022-09-09T09:53:32;6.63;;;1.63;;
52360;SDS011;38294;42.966;1.608;2022-09-09T09:56:01;5.28;;;1.83;;
52360;SDS011;38294;42.966;1.608;2022-09-09T09:58:29;8.52;;;2.10;;
52360;SDS011;38294;42.966;1.608;2022-09-09T10:00:59;5.65;;;1.65;;
52360;SDS011;38294;42.966;1.608;2022-09-09T10:03:29;5.15;;;1.85;;
52360;SDS011;38294;42.966;1.608;2022-09-09T10:05:57;4.03;;;1.50;;
52360;SDS011;38294;42.966;1.608;2022-09-09T10:08:23;4.90;;;1.90;;
52360;SDS011;38294;42.966;1.608;2022-09-09T10:19:29;7.78;;;1.88;;
52360;SDS011;38294;42.966;1.608;2022-09-09T10:21:56;5.13;;;1.30;;
52360;SDS011;38294;42.966;1.608;2022-09-09T10:33:37;6.40;;;1.70;;
52360;SDS011;38294;42.966;1.608;2022-09-09T10:36:13;4.65;;;2.00;;
52360;SDS011;38294;42.966;1.608;2022-09-09T10:55:40;4.80;;;2.13;;
52360;SDS011;38294;42.966;1.608;2022-09-09T10:58:10;4.72;;;2.75;;
52360;SDS011;38294;42.966;1.608;2022-09-09T11:00:42;3.50;;;1.63;;
52360;SDS011;38294;42.966;1.608;2022-09-09T11:03:22;3.80;;;1.35;;
52360;SDS011;38294;42.966;1.608;2022-09-09T11:06:11;5.88;;;1.30;;
52360;SDS011;38294;42.966;1.608;2022-09-09T11:08:42;5.30;;;1.40;;
52360;SDS011;38294;42.966;1.608;2022-09-09T11:11:12;3.58;;;1.63;;
52360;SDS011;38294;42.966;1.608;2022-09-09T11:22:02;4.53;;;1.27;;
52360;SDS011;38294;42.966;1.608;2022-09-09T11:24:52;2.65;;;1.42;;
52360;SDS011;38294;42.966;1.608;2022-09-09T11:32:53;2.83;;;1.50;;
52360;SDS011;38294;42.966;1.608;2022-09-09T11:35:53;3.35;;;1.33;;
52360;SDS011;38294;42.966;1.608;2022-09-09T11:41:10;3.10;;;1.42;;
52360;SDS011;38294;42.966;1.608;2022-09-09T11:43:40;4.72;;;1.60;;
52360;SDS011;38294;42.966;1.608;2022-09-09T11:46:14;2.90;;;1.42;;
52360;SDS011;38294;42.966;1.608;2022-09-09T11:48:57;5.07;;;1.58;;
52360;SDS011;38294;42.966;1.608;2022-09-09T11:51:25;5.20;;;1.77;;
52360;SDS011;38294;42.966;1.608;2022-09-09T11:56:30;4.95;;;1.13;;
52360;SDS011;38294;42.966;1.608;2022-09-09T11:59:03;9.10;;;1.40;;
52360;SDS011;38294;42.966;1.608;2022-09-09T12:01:33;7.97;;;1.60;;
52360;SDS011;38294;42.966;1.608;2022-09-09T12:07:20;3.42;;;1.50;;
52360;SDS011;38294;42.966;1.608;2022-09-09T12:13:18;2.22;;;1.40;;
52360;SDS011;38294;42.966;1.608;2022-09-09T12:15:49;3.13;;;1.02;;
52360;SDS011;38294;42.966;1.608;2022-09-09T12:18:34;3.35;;;1.40;;
52360;SDS011;38294;42.966;1.608;2022-09-09T12:24:11;2.60;;;1.27;;
52360;SDS011;38294;42.966;1.608;2022-09-09T12:26:43;2.58;;;1.20;;
52360;SDS011;38294;42.966;1.608;2022-09-09T12:37:21;1.35;;;1.00;;
52360;SDS011;38294;42.966;1.608;2022-09-09T12:39:58;1.92;;;0.90;;
52360;SDS011;38294;42.966;1.608;2022-09-09T12:42:27;0.80;;;0.80;;
52360;SDS011;38294;42.966;1.608;2022-09-09T12:47:22;1.02;;;0.60;;
52360;SDS011;38294;42.966;1.608;2022-09-09T12:49:54;1.40;;;0.70;;
52360;SDS011;38294;42.966;1.608;2022-09-09T12:52:31;1.58;;;0.80;;
52360;SDS011;38294;42.966;1.608;2022-09-09T12:55:01;0.70;;;0.63;;
52360;SDS011;38294;42.966;1.608;2022-09-09T12:57:33;1.25;;;0.70;;
52360;SDS011;38294;42.966;1.608;2022-09-09T13:00:11;1.58;;;0.90;;
52360;SDS011;38294;42.966;1.608;2022-09-09T13:02:50;0.98;;;0.88;;
52360;SDS011;38294;42.966;1.608;2022-09-09T13:05:20;0.80;;;0.70;;
52360;SDS011;38294;42.966;1.608;2022-09-09T13:07:46;3.03;;;0.90;;
52360;SDS011;38294;42.966;1.608;2022-09-09T13:10:13;0.63;;;0.63;;
52360;SDS011;38294;42.966;1.608;2022-09-09T13:12:40;0.77;;;0.77;;
52360;SDS011;38294;42.966;1.608;2022-09-09T13:15:19;0.82;;;0.80;;
52360;SDS011;38294;42.966;1.608;2022-09-09T13:17:53;1.05;;;0.70;;
52360;SDS011;38294;42.966;1.608;2022-09-09T13:20:21;1.20;;;1.10;;
52360;SDS011;38294;42.966;1.608;2022-09-09T13:22:49;1.63;;;0.98;;
52360;SDS011;38294;42.966;1.608;2022-09-09T13:25:22;2.03;;;0.80;;
52360;SDS011;38294;42.966;1.608;2022-09-09T13:27:59;1.75;;;0.63;;
52360;SDS011;38294;42.966;1.608;2022-09-09T13:30:32;0.50;;;0.50;;
52360;SDS011;38294;42.966;1.608;2022-09-09T13:35:30;0.88;;;0.68;;
52360;SDS011;38294;42.966;1.608;2022-09-09T13:37:57;1.08;;;0.50;;
52360;SDS011;38294;42.966;1.608;2022-09-09T13:40:23;0.82;;;0.70;;
52360;SDS011;38294;42.966;1.608;2022-09-09T13:42:56;2.70;;;1.00;;
52360;SDS011;38294;42.966;1.608;2022-09-09T13:45:23;1.83;;;1.38;;
52360;SDS011;38294;42.966;1.608;2022-09-09T13:47:52;1.25;;;1.15;;
52360;SDS011;38294;42.966;1.608;2022-09-09T13:50:29;1.45;;;0.90;;
52360;SDS011;38294;42.966;1.608;2022-09-09T13:52:56;2.40;;;0.90;;
52360;SDS011;38294;42.966;1.608;2022-09-09T13:55:24;2.13;;;0.90;;
52360;SDS011;38294;42.966;1.608;2022-09-09T13:57:56;1.90;;;1.10;;
52360;SDS011;38294;42.966;1.608;2022-09-09T14:00:23;2.78;;;1.48;;
52360;SDS011;38294;42.966;1.608;2022-09-09T14:02:50;1.55;;;0.90;;
52360;SDS011;38294;42.966;1.608;2022-09-09T14:05:16;1.75;;;1.00;;
52360;SDS011;38294;42.966;1.608;2022-09-09T14:07:43;1.13;;;0.70;;
52360;SDS011;38294;42.966;1.608;2022-09-09T14:10:09;3.15;;;0.80;;
52360;SDS011;38294;42.966;1.608;2022-09-09T14:12:35;2.28;;;0.82;;
52360;SDS011;38294;42.966;1.608;2022-09-09T14:15:02;4.22;;;0.90;;
52360;SDS011;38294;42.966;1.608;2022-09-09T14:17:28;3.17;;;1.00;;
52360;SDS011;38294;42.966;1.608;2022-09-09T14:19:55;2.20;;;1.10;;
52360;SDS011;38294;42.966;1.608;2022-09-09T14:22:21;9.52;;;1.55;;
52360;SDS011;38294;42.966;1.608;2022-09-09T14:24:47;6.80;;;0.80;;
52360;SDS011;38294;42.966;1.608;2022-09-09T14:27:12;13.88;;;2.03;;
52360;SDS011;38294;42.966;1.608;2022-09-09T14:29:38;17.25;;;2.60;;
52360;SDS011;38294;42.966;1.608;2022-09-09T14:32:04;7.18;;;1.23;;
52360;SDS011;38294;42.966;1.608;2022-09-09T14:34:29;1.25;;;0.80;;
52360;SDS011;38294;42.966;1.608;2022-09-09T14:36:57;8.75;;;1.45;;
52360;SDS011;38294;42.966;1.608;2022-09-09T14:39:23;6.03;;;1.30;;
52360;SDS011;38294;42.966;1.608;2022-09-09T14:41:49;3.88;;;1.17;;
52360;SDS011;38294;42.966;1.608;2022-09-09T14:44:14;2.22;;;0.80;;
52360;SDS011;38294;42.966;1.608;2022-09-09T14:46:41;8.00;;;1.20;;
52360;SDS011;38294;42.966;1.608;2022-09-09T14:49:08;2.42;;;0.80;;
52360;SDS011;38294;42.966;1.608;2022-09-09T14:51:35;5.85;;;1.50;;
52360;SDS011;38294;42.966;1.608;2022-09-09T14:54:01;1.83;;;0.80;;
52360;SDS011;38294;42.966;1.608;2022-09-09T14:56:27;2.75;;;1.02;;
52360;SDS011;38294;42.966;1.608;2022-09-09T14:58:55;2.95;;;1.08;;
52360;SDS011;38294;42.966;1.608;2022-09-09T15:01:22;6.18;;;1.35;;
52360;SDS011;38294;42.966;1.608;2022-09-09T15:03:49;4.40;;;1.30;;
52360;SDS011;38294;42.966;1.608;2022-09-09T15:06:16;5.03;;;1.30;;
52360;SDS011;38294;42.966;1.608;2022-09-09T15:08:43;2.70;;;1.10;;
52360;SDS011;38294;42.966;1.608;2022-09-09T15:11:10;3.75;;;1.20;;
52360;SDS011;38294;42.966;1.608;2022-09-09T15:13:37;3.00;;;0.80;;
52360;SDS011;38294;42.966;1.608;2022-09-09T15:16:12;1.92;;;0.80;;
52360;SDS011;38294;42.966;1.608;2022-09-09T15:18:39;2.67;;;1.20;;
52360;SDS011;38294;42.966;1.608;2022-09-09T15:21:10;3.38;;;1.50;;
52360;SDS011;38294;42.966;1.608;2022-09-09T15:23:41;5.30;;;1.70;;
52360;SDS011;38294;42.966;1.608;2022-09-09T15:26:07;3.80;;;1.15;;
52360;SDS011;38294;42.966;1.608;2022-09-09T15:28:33;6.55;;;1.00;;
52360;SDS011;38294;42.966;1.608;2022-09-09T15:31:04;3.53;;;2.13;;
52360;SDS011;38294;42.966;1.608;2022-09-09T15:33:32;5.15;;;1.10;;
52360;SDS011;38294;42.966;1.608;2022-09-09T15:35:58;1.58;;;0.70;;
52360;SDS011;38294;42.966;1.608;2022-09-09T15:38:23;5.47;;;1.10;;
52360;SDS011;38294;42.966;1.608;2022-09-09T15:40:53;4.35;;;1.10;;
52360;SDS011;38294;42.966;1.608;2022-09-09T15:43:19;2.83;;;1.30;;
52360;SDS011;38294;42.966;1.608;2022-09-09T15:45:45;6.30;;;2.33;;
52360;SDS011;38294;42.966;1.608;2022-09-09T15:48:16;4.03;;;1.48;;
52360;SDS011;38294;42.966;1.608;2022-09-09T15:50:42;4.30;;;1.10;;
52360;SDS011;38294;42.966;1.608;2022-09-09T15:53:07;2.72;;;0.93;;
52360;SDS011;38294;42.966;1.608;2022-09-09T15:55:33;6.15;;;1.70;;
52360;SDS011;38294;42.966;1.608;2022-09-09T15:57:58;8.38;;;2.65;;
52360;SDS011;38294;42.966;1.608;2022-09-09T16:00:24;3.63;;;1.20;;
52360;SDS011;38294;42.966;1.608;2022-09-09T16:02:50;3.10;;;1.55;;
52360;SDS011;38294;42.966;1.608;2022-09-09T16:05:16;3.95;;;1.30;;
52360;SDS011;38294;42.966;1.608;2022-09-09T16:07:41;2.38;;;1.50;;
52360;SDS011;38294;42.966;1.608;2022-09-09T16:10:07;8.02;;;2.78;;
52360;SDS011;38294;42.966;1.608;2022-09-09T16:12:34;8.18;;;2.22;;
52360;SDS011;38294;42.966;1.608;2022-09-09T16:14:59;4.50;;;1.60;;
52360;SDS011;38294;42.966;1.608;2022-09-09T16:17:25;3.72;;;1.63;;
52360;SDS011;38294;42.966;1.608;2022-09-09T16:19:52;5.72;;;1.40;;
52360;SDS011;38294;42.966;1.608;2022-09-09T16:22:19;3.90;;;1.50;;
52360;SDS011;38294;42.966;1.608;2022-09-09T16:24:45;4.13;;;1.50;;
52360;SDS011;38294;42.966;1.608;2022-09-09T16:27:11;4.82;;;1.35;;
52360;SDS011;38294;42.966;1.608;2022-09-09T16:29:36;2.45;;;1.23;;
52360;SDS011;38294;42.966;1.608;2022-09-09T16:32:02;5.90;;;1.92;;
52360;SDS011;38294;42.966;1.608;2022-09-09T16:34:28;3.60;;;1.60;;
52360;SDS011;38294;42.966;1.608;2022-09-09T16:36:53;3.40;;;1.95;;
52360;SDS011;38294;42.966;1.608;2022-09-09T16:39:19;4.65;;;1.67;;
52360;SDS011;38294;42.966;1.608;2022-09-09T16:41:46;3.13;;;1.42;;
52360;SDS011;38294;42.966;1.608;2022-09-09T16:44:13;4.72;;;2.10;;
52360;SDS011;38294;42.966;1.608;2022-09-09T16:46:42;9.77;;;2.78;;
52360;SDS011;38294;42.966;1.608;2022-09-09T16:49:09;7.82;;;2.83;;
52360;SDS011;38294;42.966;1.608;2022-09-09T16:51:44;5.93;;;2.28;;
52360;SDS011;38294;42.966;1.608;2022-09-09T16:54:12;6.75;;;2.65;;
52360;SDS011;38294;42.966;1.608;2022-09-09T16:56:39;3.38;;;1.95;;
52360;SDS011;38294;42.966;1.608;2022-09-09T16:59:07;3.70;;;1.73;;
52360;SDS011;38294;42.966;1.608;2022-09-09T17:01:39;3.60;;;1.60;;
52360;SDS011;38294;42.966;1.608;2022-09-09T17:04:06;3.85;;;2.13;;
52360;SDS011;38294;42.966;1.608;2022-09-09T17:06:34;4.43;;;2.30;;
52360;SDS011;38294;42.966;1.608;2022-09-09T17:09:02;6.03;;;1.48;;
52360;SDS011;38294;42.966;1.608;2022-09-09T17:11:30;4.15;;;1.42;;
52360;SDS011;38294;42.966;1.608;2022-09-09T17:13:56;3.60;;;1.80;;